sensor_id;sensor_type;location;lat;lon;timestamp;pressure;altitude;pressure_sealevel;temperature
72278;BMP280;61204;49.980;8.358;2023-05-01T00:01:36;100704.84;;;12.48
72278;BMP280;61204;49.980;8.358;2023-05-01T00:04:01;100706.03;;;12.45
72278;BMP280;61204;49.980;8.358;2023-05-01T00:06:27;100708.91;;;12.47
72278;BMP280;61204;49.980;8.358;2023-05-01T00:08:52;100707.34;;;12.44
72278;BMP280;61204;49.980;8.358;2023-05-01T00:11:18;100708.38;;;12.39
72278;BMP280;61204;49.980;8.358;2023-05-01T00:13:43;100698.38;;;12.43
72278;BMP280;61204;49.980;8.358;2023-05-01T00:16:09;100699.09;;;12.44
72278;BMP280;61204;49.980;8.358;2023-05-01T00:18:36;100701.72;;;12.42
72278;BMP280;61204;49.980;8.358;2023-05-01T00:21:02;100695.03;;;12.45
72278;BMP280;61204;49.980;8.358;2023-05-01T00:23:28;100687.03;;;12.49
72278;BMP280;61204;49.980;8.358;2023-05-01T00:25:54;100684.03;;;12.45
72278;BMP280;61204;49.980;8.358;2023-05-01T00:28:19;100684.03;;;12.45
72278;BMP280;61204;49.980;8.358;2023-05-01T00:30:45;100686.41;;;12.39
72278;BMP280;61204;49.980;8.358;2023-05-01T00:33:11;100677.53;;;12.40
72278;BMP280;61204;49.980;8.358;2023-05-01T00:35:39;100677.22;;;12.46
72278;BMP280;61204;49.980;8.358;2023-05-01T00:38:11;100678.06;;;12.48
72278;BMP280;61204;49.980;8.358;2023-05-01T00:40:40;100675.78;;;12.45
72278;BMP280;61204;49.980;8.358;2023-05-01T00:43:07;100677.31;;;12.48
72278;BMP280;61204;49.980;8.358;2023-05-01T00:45:33;100666.22;;;12.46
72278;BMP280;61204;49.980;8.358;2023-05-01T00:47:58;100668.84;;;12.44
72278;BMP280;61204;49.980;8.358;2023-05-01T00:50:24;100669.75;;;12.37
72278;BMP280;61204;49.980;8.358;2023-05-01T00:52:49;100663.69;;;12.38
72278;BMP280;61204;49.980;8.358;2023-05-01T00:55:15;100659.94;;;12.34
72278;BMP280;61204;49.980;8.358;2023-05-01T00:57:40;100659.09;;;12.31
72278;BMP280;61204;49.980;8.358;2023-05-01T01:00:06;100646.91;;;12.34
72278;BMP280;61204;49.980;8.358;2023-05-01T01:02:35;100649.00;;;12.24
72278;BMP280;61204;49.980;8.358;2023-05-01T01:05:01;100641.19;;;12.20
72278;BMP280;61204;49.980;8.358;2023-05-01T01:08:04;100642.25;;;12.15
72278;BMP280;61204;49.980;8.358;2023-05-01T01:10:44;100644.13;;;12.13
72278;BMP280;61204;49.980;8.358;2023-05-01T01:21:54;100630.19;;;11.99
72278;BMP280;61204;49.980;8.358;2023-05-01T01:27:29;100626.91;;;11.91
72278;BMP280;61204;49.980;8.358;2023-05-01T01:36:01;100624.78;;;11.80
72278;BMP280;61204;49.980;8.358;2023-05-01T01:38:41;100624.97;;;11.72
72278;BMP280;61204;49.980;8.358;2023-05-01T01:41:12;100622.66;;;11.68
72278;BMP280;61204;49.980;8.358;2023-05-01T01:43:53;100615.31;;;11.61
72278;BMP280;61204;49.980;8.358;2023-05-01T01:46:26;100619.84;;;11.57
72278;BMP280;61204;49.980;8.358;2023-05-01T01:48:52;100619.69;;;11.55
72278;BMP280;61204;49.980;8.358;2023-05-01T01:51:21;100613.50;;;11.54
72278;BMP280;61204;49.980;8.358;2023-05-01T01:53:52;100605.09;;;11.52
72278;BMP280;61204;49.980;8.358;2023-05-01T01:56:21;100613.63;;;11.56
72278;BMP280;61204;49.980;8.358;2023-05-01T01:58:51;100606.28;;;11.49
72278;BMP280;61204;49.980;8.358;2023-05-01T02:01:18;100609.91;;;11.42
72278;BMP280;61204;49.980;8.358;2023-05-01T02:03:45;100608.47;;;11.41
72278;BMP280;61204;49.980;8.358;2023-05-01T02:06:12;100605.59;;;11.39
72278;BMP280;61204;49.980;8.358;2023-05-01T02:08:41;100604.03;;;11.36
72278;BMP280;61204;49.980;8.358;2023-05-01T02:11:10;100602.84;;;11.39
72278;BMP280;61204;49.980;8.358;2023-05-01T02:13:39;100598.81;;;11.40
72278;BMP280;61204;49.980;8.358;2023-05-01T02:16:07;100597.50;;;11.41
72278;BMP280;61204;49.980;8.358;2023-05-01T02:18:33;100601.84;;;11.34
72278;BMP280;61204;49.980;8.358;2023-05-01T02:21:02;100599.28;;;11.27
72278;BMP280;61204;49.980;8.358;2023-05-01T02:23:31;100603.31;;;11.26
72278;BMP280;61204;49.980;8.358;2023-05-01T02:25:58;100600.84;;;11.30
72278;BMP280;61204;49.980;8.358;2023-05-01T02:28:27;100598.81;;;11.30
72278;BMP280;61204;49.980;8.358;2023-05-01T02:30:55;100602.28;;;11.31
72278;BMP280;61204;49.980;8.358;2023-05-01T02:33:21;100593.50;;;11.23
72278;BMP280;61204;49.980;8.358;2023-05-01T02:35:47;100588.72;;;11.23
72278;BMP280;61204;49.980;8.358;2023-05-01T02:38:13;100587.91;;;11.21
72278;BMP280;61204;49.980;8.358;2023-05-01T02:40:41;100596.81;;;11.21
72278;BMP280;61204;49.980;8.358;2023-05-01T02:43:17;100584.44;;;11.20
72278;BMP280;61204;49.980;8.358;2023-05-01T02:45:46;100590.91;;;11.15
72278;BMP280;61204;49.980;8.358;2023-05-01T02:48:14;100584.84;;;11.16
72278;BMP280;61204;49.980;8.358;2023-05-01T02:50:45;100587.72;;;11.18
72278;BMP280;61204;49.980;8.358;2023-05-01T02:53:13;100587.34;;;11.03
72278;BMP280;61204;49.980;8.358;2023-05-01T02:55:40;100588.06;;;11.03
72278;BMP280;61204;49.980;8.358;2023-05-01T02:58:13;100580.72;;;10.96
72278;BMP280;61204;49.980;8.358;2023-05-01T03:00:40;100578.84;;;10.89
72278;BMP280;61204;49.980;8.358;2023-05-01T03:03:06;100580.00;;;10.86
72278;BMP280;61204;49.980;8.358;2023-05-01T03:05:31;100573.94;;;10.78
72278;BMP280;61204;49.980;8.358;2023-05-01T03:07:57;100578.56;;;10.85
72278;BMP280;61204;49.980;8.358;2023-05-01T03:10:22;100581.88;;;10.83
72278;BMP280;61204;49.980;8.358;2023-05-01T03:12:48;100582.31;;;10.89
72278;BMP280;61204;49.980;8.358;2023-05-01T03:15:13;100581.44;;;10.87
72278;BMP280;61204;49.980;8.358;2023-05-01T03:17:38;100570.63;;;10.89
72278;BMP280;61204;49.980;8.358;2023-05-01T03:20:04;100575.09;;;10.84
72278;BMP280;61204;49.980;8.358;2023-05-01T03:22:34;100574.09;;;10.80
72278;BMP280;61204;49.980;8.358;2023-05-01T03:25:03;100573.50;;;10.81
72278;BMP280;61204;49.980;8.358;2023-05-01T03:27:29;100570.34;;;10.75
72278;BMP280;61204;49.980;8.358;2023-05-01T03:29:57;100567.59;;;10.75
72278;BMP280;61204;49.980;8.358;2023-05-01T03:32:23;100564.13;;;10.75
72278;BMP280;61204;49.980;8.358;2023-05-01T03:34:48;100571.19;;;10.78
72278;BMP280;61204;49.980;8.358;2023-05-01T03:37:14;100565.97;;;10.82
72278;BMP280;61204;49.980;8.358;2023-05-01T03:39:40;100562.97;;;10.78
72278;BMP280;61204;49.980;8.358;2023-05-01T03:42:05;100566.13;;;10.84
72278;BMP280;61204;49.980;8.358;2023-05-01T03:44:31;100570.06;;;10.81
72278;BMP280;61204;49.980;8.358;2023-05-01T03:46:58;100561.09;;;10.80
72278;BMP280;61204;49.980;8.358;2023-05-01T03:49:24;100562.09;;;10.85
72278;BMP280;61204;49.980;8.358;2023-05-01T03:51:49;100563.41;;;10.84
72278;BMP280;61204;49.980;8.358;2023-05-01T03:54:15;100556.75;;;10.87
72278;BMP280;61204;49.980;8.358;2023-05-01T03:56:40;100556.75;;;10.97
72278;BMP280;61204;49.980;8.358;2023-05-01T03:59:08;100555.16;;;10.94
72278;BMP280;61204;49.980;8.358;2023-05-01T04:01:33;100552.69;;;10.98
72278;BMP280;61204;49.980;8.358;2023-05-01T04:03:59;100556.03;;;10.96
72278;BMP280;61204;49.980;8.358;2023-05-01T04:06:32;100554.00;;;10.97
72278;BMP280;61204;49.980;8.358;2023-05-01T04:09:06;100553.41;;;10.98
72278;BMP280;61204;49.980;8.358;2023-05-01T04:11:32;100554.41;;;10.93
72278;BMP280;61204;49.980;8.358;2023-05-01T04:13:59;100548.38;;;10.95
72278;BMP280;61204;49.980;8.358;2023-05-01T04:16:28;100556.88;;;10.99
72278;BMP280;61204;49.980;8.358;2023-05-01T04:18:54;100551.38;;;10.99
72278;BMP280;61204;49.980;8.358;2023-05-01T04:21:20;100558.31;;;11.00
72278;BMP280;61204;49.980;8.358;2023-05-01T04:23:45;100558.91;;;10.98
72278;BMP280;61204;49.980;8.358;2023-05-01T04:26:11;100559.47;;;10.97
72278;BMP280;61204;49.980;8.358;2023-05-01T04:28:37;100557.59;;;10.99
72278;BMP280;61204;49.980;8.358;2023-05-01T04:31:02;100557.16;;;11.03
72278;BMP280;61204;49.980;8.358;2023-05-01T04:33:27;100560.50;;;11.01
72278;BMP280;61204;49.980;8.358;2023-05-01T04:35:53;100558.88;;;11.08
72278;BMP280;61204;49.980;8.358;2023-05-01T04:38:18;100566.53;;;11.09
72278;BMP280;61204;49.980;8.358;2023-05-01T04:40:44;100558.44;;;11.11
72278;BMP280;61204;49.980;8.358;2023-05-01T04:43:10;100558.88;;;11.08
72278;BMP280;61204;49.980;8.358;2023-05-01T04:45:36;100562.47;;;11.10
72278;BMP280;61204;49.980;8.358;2023-05-01T04:48:02;100563.91;;;11.11
72278;BMP280;61204;49.980;8.358;2023-05-01T04:50:28;100557.72;;;11.11
72278;BMP280;61204;49.980;8.358;2023-05-01T04:52:53;100556.81;;;11.18
72278;BMP280;61204;49.980;8.358;2023-05-01T04:55:19;100560.28;;;11.18
72278;BMP280;61204;49.980;8.358;2023-05-01T04:57:47;100562.91;;;11.16
72278;BMP280;61204;49.980;8.358;2023-05-01T05:00:12;100563.88;;;11.21
72278;BMP280;61204;49.980;8.358;2023-05-01T05:02:39;100564.59;;;11.22
72278;BMP280;61204;49.980;8.358;2023-05-01T05:05:04;100561.84;;;11.22
72278;BMP280;61204;49.980;8.358;2023-05-01T05:07:30;100565.16;;;11.30
72278;BMP280;61204;49.980;8.358;2023-05-01T05:09:58;100554.78;;;11.28
72278;BMP280;61204;49.980;8.358;2023-05-01T05:12:23;100559.81;;;11.32
72278;BMP280;61204;49.980;8.358;2023-05-01T05:14:49;100556.50;;;11.33
72278;BMP280;61204;49.980;8.358;2023-05-01T05:17:14;100558.06;;;11.36
72278;BMP280;61204;49.980;8.358;2023-05-01T05:19:39;100557.47;;;11.38
72278;BMP280;61204;49.980;8.358;2023-05-01T05:22:05;100562.22;;;11.47
72278;BMP280;61204;49.980;8.358;2023-05-01T05:24:31;100560.31;;;11.50
72278;BMP280;61204;49.980;8.358;2023-05-01T05:26:56;100560.72;;;11.56
72278;BMP280;61204;49.980;8.358;2023-05-01T05:29:22;100561.13;;;11.62
72278;BMP280;61204;49.980;8.358;2023-05-01T05:31:50;100565.72;;;11.69
72278;BMP280;61204;49.980;8.358;2023-05-01T05:34:15;100561.94;;;11.74
72278;BMP280;61204;49.980;8.358;2023-05-01T05:36:41;100555.56;;;11.81
72278;BMP280;61204;49.980;8.358;2023-05-01T05:39:07;100555.38;;;11.89
72278;BMP280;61204;49.980;8.358;2023-05-01T05:41:32;100558.22;;;11.91
72278;BMP280;61204;49.980;8.358;2023-05-01T05:43:57;100557.56;;;12.02
72278;BMP280;61204;49.980;8.358;2023-05-01T05:46:23;100554.50;;;12.08
72278;BMP280;61204;49.980;8.358;2023-05-01T05:48:49;100554.16;;;12.13
72278;BMP280;61204;49.980;8.358;2023-05-01T05:51:16;100560.16;;;12.21
72278;BMP280;61204;49.980;8.358;2023-05-01T05:53:42;100562.97;;;12.33
72278;BMP280;61204;49.980;8.358;2023-05-01T05:56:07;100561.81;;;12.48
72278;BMP280;61204;49.980;8.358;2023-05-01T05:58:35;100556.88;;;12.56
72278;BMP280;61204;49.980;8.358;2023-05-01T06:01:01;100549.47;;;12.70
72278;BMP280;61204;49.980;8.358;2023-05-01T06:03:27;100549.63;;;12.84
72278;BMP280;61204;49.980;8.358;2023-05-01T06:05:53;100555.63;;;13.04
72278;BMP280;61204;49.980;8.358;2023-05-01T06:08:18;100555.53;;;13.25
72278;BMP280;61204;49.980;8.358;2023-05-01T06:10:44;100559.47;;;13.46
72278;BMP280;61204;49.980;8.358;2023-05-01T06:13:10;100556.31;;;13.75
72278;BMP280;61204;49.980;8.358;2023-05-01T06:15:36;100558.97;;;13.84
72278;BMP280;61204;49.980;8.358;2023-05-01T06:18:02;100561.06;;;13.97
72278;BMP280;61204;49.980;8.358;2023-05-01T06:20:27;100550.94;;;14.14
72278;BMP280;61204;49.980;8.358;2023-05-01T06:22:53;100551.28;;;14.20
72278;BMP280;61204;49.980;8.358;2023-05-01T06:25:19;100552.56;;;13.93
72278;BMP280;61204;49.980;8.358;2023-05-01T06:27:45;100549.78;;;14.31
72278;BMP280;61204;49.980;8.358;2023-05-01T06:30:11;100541.91;;;14.50
72278;BMP280;61204;49.980;8.358;2023-05-01T06:32:37;100547.53;;;14.52
72278;BMP280;61204;49.980;8.358;2023-05-01T06:35:02;100545.97;;;14.75
72278;BMP280;61204;49.980;8.358;2023-05-01T06:37:28;100546.28;;;14.81
72278;BMP280;61204;49.980;8.358;2023-05-01T06:39:54;100537.59;;;15.00
72278;BMP280;61204;49.980;8.358;2023-05-01T06:42:20;100545.56;;;14.94
72278;BMP280;61204;49.980;8.358;2023-05-01T06:44:45;100552.44;;;15.07
72278;BMP280;61204;49.980;8.358;2023-05-01T06:47:11;100545.19;;;15.13
72278;BMP280;61204;49.980;8.358;2023-05-01T06:49:36;100541.75;;;15.70
72278;BMP280;61204;49.980;8.358;2023-05-01T06:52:02;100549.94;;;15.68
72278;BMP280;61204;49.980;8.358;2023-05-01T06:54:27;100541.84;;;15.72
72278;BMP280;61204;49.980;8.358;2023-05-01T06:56:53;100548.50;;;15.81
72278;BMP280;61204;49.980;8.358;2023-05-01T06:59:18;100549.16;;;15.95
72278;BMP280;61204;49.980;8.358;2023-05-01T07:01:44;100544.94;;;15.78
72278;BMP280;61204;49.980;8.358;2023-05-01T07:04:10;100534.34;;;15.18
72278;BMP280;61204;49.980;8.358;2023-05-01T07:06:35;100533.84;;;15.21
72278;BMP280;61204;49.980;8.358;2023-05-01T07:09:01;100541.28;;;15.19
72278;BMP280;61204;49.980;8.358;2023-05-01T07:11:28;100530.63;;;15.40
72278;BMP280;61204;49.980;8.358;2023-05-01T07:13:53;100542.09;;;15.35
72278;BMP280;61204;49.980;8.358;2023-05-01T07:16:19;100543.75;;;15.26
72278;BMP280;61204;49.980;8.358;2023-05-01T07:18:45;100540.97;;;15.40
72278;BMP280;61204;49.980;8.358;2023-05-01T07:21:11;100548.75;;;15.16
72278;BMP280;61204;49.980;8.358;2023-05-01T07:23:37;100533.63;;;15.44
72278;BMP280;61204;49.980;8.358;2023-05-01T07:26:03;100542.59;;;15.59
72278;BMP280;61204;49.980;8.358;2023-05-01T07:28:31;100532.56;;;15.52
72278;BMP280;61204;49.980;8.358;2023-05-01T07:30:59;100540.94;;;15.54
72278;BMP280;61204;49.980;8.358;2023-05-01T07:33:25;100539.72;;;15.70
72278;BMP280;61204;49.980;8.358;2023-05-01T07:35:51;100537.22;;;16.06
72278;BMP280;61204;49.980;8.358;2023-05-01T07:38:17;100531.78;;;15.79
72278;BMP280;61204;49.980;8.358;2023-05-01T07:40:42;100537.22;;;16.06
72278;BMP280;61204;49.980;8.358;2023-05-01T07:43:08;100532.81;;;16.15
72278;BMP280;61204;49.980;8.358;2023-05-01T07:45:37;100543.03;;;16.42
72278;BMP280;61204;49.980;8.358;2023-05-01T07:48:03;100536.16;;;16.43
72278;BMP280;61204;49.980;8.358;2023-05-01T07:50:30;100535.50;;;16.28
72278;BMP280;61204;49.980;8.358;2023-05-01T07:52:56;100530.16;;;16.32
72278;BMP280;61204;49.980;8.358;2023-05-01T07:55:22;100537.34;;;16.08
72278;BMP280;61204;49.980;8.358;2023-05-01T07:57:48;100528.19;;;16.19
72278;BMP280;61204;49.980;8.358;2023-05-01T08:00:14;100532.69;;;16.42
72278;BMP280;61204;49.980;8.358;2023-05-01T08:02:41;100540.25;;;16.26
72278;BMP280;61204;49.980;8.358;2023-05-01T08:05:07;100532.16;;;16.46
72278;BMP280;61204;49.980;8.358;2023-05-01T08:07:33;100542.66;;;16.33
72278;BMP280;61204;49.980;8.358;2023-05-01T08:09:59;100539.09;;;16.01
72278;BMP280;61204;49.980;8.358;2023-05-01T08:12:24;100548.28;;;15.77
72278;BMP280;61204;49.980;8.358;2023-05-01T08:14:51;100534.38;;;15.74
72278;BMP280;61204;49.980;8.358;2023-05-01T08:17:17;100537.63;;;16.14
72278;BMP280;61204;49.980;8.358;2023-05-01T08:19:42;100532.97;;;16.64
72278;BMP280;61204;49.980;8.358;2023-05-01T08:22:09;100527.94;;;16.92
72278;BMP280;61204;49.980;8.358;2023-05-01T08:24:35;100524.66;;;16.80
72278;BMP280;61204;49.980;8.358;2023-05-01T08:27:00;100526.69;;;17.29
72278;BMP280;61204;49.980;8.358;2023-05-01T08:29:28;100520.06;;;17.53
72278;BMP280;61204;49.980;8.358;2023-05-01T08:31:55;100522.13;;;17.02
72278;BMP280;61204;49.980;8.358;2023-05-01T08:34:22;100515.63;;;17.29
72278;BMP280;61204;49.980;8.358;2023-05-01T08:36:48;100507.25;;;17.62
72278;BMP280;61204;49.980;8.358;2023-05-01T08:39:14;100515.91;;;17.70
72278;BMP280;61204;49.980;8.358;2023-05-01T08:41:40;100518.72;;;18.08
72278;BMP280;61204;49.980;8.358;2023-05-01T08:44:12;100515.38;;;18.49
72278;BMP280;61204;49.980;8.358;2023-05-01T08:46:45;100514.66;;;18.68
72278;BMP280;61204;49.980;8.358;2023-05-01T08:49:15;100520.09;;;18.64
72278;BMP280;61204;49.980;8.358;2023-05-01T08:51:45;100507.84;;;19.13
72278;BMP280;61204;49.980;8.358;2023-05-01T08:54:14;100509.38;;;19.18
72278;BMP280;61204;49.980;8.358;2023-05-01T08:56:43;100506.75;;;19.44
72278;BMP280;61204;49.980;8.358;2023-05-01T08:59:11;100507.25;;;19.60
72278;BMP280;61204;49.980;8.358;2023-05-01T09:01:40;100500.69;;;19.28
72278;BMP280;61204;49.980;8.358;2023-05-01T09:04:07;100507.50;;;19.92
72278;BMP280;61204;49.980;8.358;2023-05-01T09:06:34;100507.50;;;19.92
72278;BMP280;61204;49.980;8.358;2023-05-01T09:09:00;100503.84;;;20.10
72278;BMP280;61204;49.980;8.358;2023-05-01T09:11:28;100509.00;;;20.71
72278;BMP280;61204;49.980;8.358;2023-05-01T09:13:54;100505.16;;;20.56
72278;BMP280;61204;49.980;8.358;2023-05-01T09:16:21;100503.28;;;20.39
72278;BMP280;61204;49.980;8.358;2023-05-01T09:18:49;100508.75;;;20.63
72278;BMP280;61204;49.980;8.358;2023-05-01T09:21:19;100503.25;;;20.93
72278;BMP280;61204;49.980;8.358;2023-05-01T09:23:44;100504.94;;;20.76
72278;BMP280;61204;49.980;8.358;2023-05-01T09:26:10;100499.06;;;21.52
72278;BMP280;61204;49.980;8.358;2023-05-01T09:28:39;100501.00;;;21.45
72278;BMP280;61204;49.980;8.358;2023-05-01T09:31:25;100497.69;;;21.53
72278;BMP280;61204;49.980;8.358;2023-05-01T09:33:56;100501.59;;;21.40
72278;BMP280;61204;49.980;8.358;2023-05-01T09:36:26;100500.88;;;21.09
72278;BMP280;61204;49.980;8.358;2023-05-01T09:38:55;100500.13;;;22.39
72278;BMP280;61204;49.980;8.358;2023-05-01T09:41:22;100487.88;;;22.98
72278;BMP280;61204;49.980;8.358;2023-05-01T09:43:57;100490.25;;;22.72
72278;BMP280;61204;49.980;8.358;2023-05-01T09:46:24;100489.47;;;22.67
72278;BMP280;61204;49.980;8.358;2023-05-01T09:48:55;100491.59;;;22.69
72278;BMP280;61204;49.980;8.358;2023-05-01T09:51:29;100488.66;;;23.05
72278;BMP280;61204;49.980;8.358;2023-05-01T09:53:59;100489.00;;;23.83
72278;BMP280;61204;49.980;8.358;2023-05-01T09:56:30;100483.56;;;23.98
72278;BMP280;61204;49.980;8.358;2023-05-01T09:59:13;100480.91;;;24.10
72278;BMP280;61204;49.980;8.358;2023-05-01T10:01:42;100487.19;;;24.08
72278;BMP280;61204;49.980;8.358;2023-05-01T10:04:13;100489.06;;;24.60
72278;BMP280;61204;49.980;8.358;2023-05-01T10:06:38;100489.56;;;25.29
72278;BMP280;61204;49.980;8.358;2023-05-01T10:09:05;100481.78;;;25.22
72278;BMP280;61204;49.980;8.358;2023-05-01T10:11:47;100490.84;;;23.10
72278;BMP280;61204;49.980;8.358;2023-05-01T10:14:16;100489.16;;;22.11
72278;BMP280;61204;49.980;8.358;2023-05-01T10:16:44;100488.19;;;23.21
72278;BMP280;61204;49.980;8.358;2023-05-01T10:19:10;100482.72;;;23.85
72278;BMP280;61204;49.980;8.358;2023-05-01T10:21:37;100482.06;;;23.89
72278;BMP280;61204;49.980;8.358;2023-05-01T10:24:02;100479.06;;;24.37
72278;BMP280;61204;49.980;8.358;2023-05-01T10:26:29;100484.13;;;25.70
72278;BMP280;61204;49.980;8.358;2023-05-01T10:28:58;100480.66;;;25.98
72278;BMP280;61204;49.980;8.358;2023-05-01T10:31:25;100487.03;;;26.29
72278;BMP280;61204;49.980;8.358;2023-05-01T10:33:52;100480.72;;;26.36
72278;BMP280;61204;49.980;8.358;2023-05-01T10:36:20;100487.69;;;26.94
72278;BMP280;61204;49.980;8.358;2023-05-01T10:38:47;100474.78;;;27.64
72278;BMP280;61204;49.980;8.358;2023-05-01T10:41:13;100476.97;;;27.37
72278;BMP280;61204;49.980;8.358;2023-05-01T10:43:42;100478.88;;;28.67
72278;BMP280;61204;49.980;8.358;2023-05-01T10:56:39;100472.25;;;26.71
72278;BMP280;61204;49.980;8.358;2023-05-01T10:59:07;100468.06;;;24.61
72278;BMP280;61204;49.980;8.358;2023-05-01T11:12:13;100456.44;;;29.16
72278;BMP280;61204;49.980;8.358;2023-05-01T11:15:00;100455.66;;;29.22
72278;BMP280;61204;49.980;8.358;2023-05-01T11:20:08;100466.63;;;26.55
72278;BMP280;61204;49.980;8.358;2023-05-01T11:22:58;100458.19;;;25.88
72278;BMP280;61204;49.980;8.358;2023-05-01T11:25:25;100454.72;;;26.48
72278;BMP280;61204;49.980;8.358;2023-05-01T11:27:54;100449.06;;;26.62
72278;BMP280;61204;49.980;8.358;2023-05-01T11:30:23;100453.25;;;25.88
72278;BMP280;61204;49.980;8.358;2023-05-01T11:32:50;100452.59;;;26.63
72278;BMP280;61204;49.980;8.358;2023-05-01T11:37:52;100441.34;;;26.16
72278;BMP280;61204;49.980;8.358;2023-05-01T11:40:26;100436.44;;;26.14
72278;BMP280;61204;49.980;8.358;2023-05-01T11:45:32;100434.13;;;27.25
72278;BMP280;61204;49.980;8.358;2023-05-01T11:48:01;100434.41;;;27.94
72278;BMP280;61204;49.980;8.358;2023-05-01T11:52:59;100442.81;;;29.80
72278;BMP280;61204;49.980;8.358;2023-05-01T11:55:32;100426.25;;;29.56
72278;BMP280;61204;49.980;8.358;2023-05-01T11:57:59;100436.66;;;29.18
72278;BMP280;61204;49.980;8.358;2023-05-01T12:00:29;100441.00;;;29.11
72278;BMP280;61204;49.980;8.358;2023-05-01T12:03:10;100432.28;;;28.72
72278;BMP280;61204;49.980;8.358;2023-05-01T12:05:38;100425.75;;;28.18
72278;BMP280;61204;49.980;8.358;2023-05-01T12:08:10;100436.16;;;29.04
72278;BMP280;61204;49.980;8.358;2023-05-01T12:10:37;100434.41;;;29.29
72278;BMP280;61204;49.980;8.358;2023-05-01T12:13:07;100423.38;;;29.09
72278;BMP280;61204;49.980;8.358;2023-05-01T12:15:35;100416.69;;;28.81
72278;BMP280;61204;49.980;8.358;2023-05-01T12:18:10;100419.56;;;27.98
72278;BMP280;61204;49.980;8.358;2023-05-01T12:20:37;100428.72;;;28.00
72278;BMP280;61204;49.980;8.358;2023-05-01T12:23:07;100418.25;;;27.91
72278;BMP280;61204;49.980;8.358;2023-05-01T12:25:36;100422.94;;;27.06
72278;BMP280;61204;49.980;8.358;2023-05-01T12:28:13;100426.91;;;27.56
72278;BMP280;61204;49.980;8.358;2023-05-01T12:30:43;100424.38;;;26.97
72278;BMP280;61204;49.980;8.358;2023-05-01T12:33:16;100424.47;;;26.24
72278;BMP280;61204;49.980;8.358;2023-05-01T12:35:46;100413.09;;;27.07
72278;BMP280;61204;49.980;8.358;2023-05-01T12:38:14;100415.88;;;28.21
72278;BMP280;61204;49.980;8.358;2023-05-01T12:40:52;100413.06;;;27.13
72278;BMP280;61204;49.980;8.358;2023-05-01T12:43:30;100419.56;;;26.47
72278;BMP280;61204;49.980;8.358;2023-05-01T12:45:58;100417.25;;;25.20
72278;BMP280;61204;49.980;8.358;2023-05-01T12:48:24;100424.47;;;26.67
72278;BMP280;61204;49.980;8.358;2023-05-01T12:50:51;100410.34;;;26.81
72278;BMP280;61204;49.980;8.358;2023-05-01T12:53:24;100403.28;;;27.04
72278;BMP280;61204;49.980;8.358;2023-05-01T12:55:55;100408.81;;;27.21
72278;BMP280;61204;49.980;8.358;2023-05-01T12:58:23;100408.50;;;27.75
72278;BMP280;61204;49.980;8.358;2023-05-01T13:00:59;100408.84;;;28.18
72278;BMP280;61204;49.980;8.358;2023-05-01T13:03:26;100417.97;;;27.17
72278;BMP280;61204;49.980;8.358;2023-05-01T13:05:53;100420.28;;;26.15
72278;BMP280;61204;49.980;8.358;2023-05-01T13:08:29;100410.38;;;25.55
72278;BMP280;61204;49.980;8.358;2023-05-01T13:10:56;100406.22;;;26.05
72278;BMP280;61204;49.980;8.358;2023-05-01T13:13:32;100397.72;;;26.70
72278;BMP280;61204;49.980;8.358;2023-05-01T13:16:09;100403.25;;;28.12
72278;BMP280;61204;49.980;8.358;2023-05-01T13:18:47;100397.16;;;27.85
72278;BMP280;61204;49.980;8.358;2023-05-01T13:21:18;100383.28;;;28.39
72278;BMP280;61204;49.980;8.358;2023-05-01T13:28:59;100413.25;;;26.18
72278;BMP280;61204;49.980;8.358;2023-05-01T13:31:27;100408.34;;;26.39
72278;BMP280;61204;49.980;8.358;2023-05-01T13:33:54;100398.13;;;27.49
72278;BMP280;61204;49.980;8.358;2023-05-01T13:36:23;100393.34;;;27.24
72278;BMP280;61204;49.980;8.358;2023-05-01T13:38:51;100399.94;;;26.27
72278;BMP280;61204;49.980;8.358;2023-05-01T13:41:20;100387.97;;;25.96
72278;BMP280;61204;49.980;8.358;2023-05-01T13:43:48;100387.97;;;26.00
72278;BMP280;61204;49.980;8.358;2023-05-01T13:46:17;100390.75;;;25.79
72278;BMP280;61204;49.980;8.358;2023-05-01T13:48:45;100403.41;;;26.05
72278;BMP280;61204;49.980;8.358;2023-05-01T13:51:12;100392.19;;;26.25
72278;BMP280;61204;49.980;8.358;2023-05-01T13:53:44;100384.44;;;26.32
72278;BMP280;61204;49.980;8.358;2023-05-01T13:56:10;100383.66;;;26.82
72278;BMP280;61204;49.980;8.358;2023-05-01T13:58:37;100377.03;;;27.42
72278;BMP280;61204;49.980;8.358;2023-05-01T14:01:13;100386.56;;;25.95
72278;BMP280;61204;49.980;8.358;2023-05-01T14:03:42;100379.56;;;26.00
72278;BMP280;61204;49.980;8.358;2023-05-01T14:06:09;100376.53;;;25.04
72278;BMP280;61204;49.980;8.358;2023-05-01T14:08:39;100373.22;;;26.07
72278;BMP280;61204;49.980;8.358;2023-05-01T14:11:05;100374.28;;;27.32
72278;BMP280;61204;49.980;8.358;2023-05-01T14:13:37;100373.38;;;27.64
72278;BMP280;61204;49.980;8.358;2023-05-01T14:16:08;100367.88;;;27.46
72278;BMP280;61204;49.980;8.358;2023-05-01T14:18:44;100377.44;;;26.12
72278;BMP280;61204;49.980;8.358;2023-05-01T14:21:12;100373.03;;;27.05
72278;BMP280;61204;49.980;8.358;2023-05-01T14:23:39;100373.34;;;27.66
72278;BMP280;61204;49.980;8.358;2023-05-01T14:26:08;100362.72;;;27.77
72278;BMP280;61204;49.980;8.358;2023-05-01T14:28:40;100361.34;;;28.47
72278;BMP280;61204;49.980;8.358;2023-05-01T14:31:07;100361.78;;;28.03
72278;BMP280;61204;49.980;8.358;2023-05-01T14:33:33;100363.41;;;27.79
72278;BMP280;61204;49.980;8.358;2023-05-01T14:36:07;100358.16;;;27.18
72278;BMP280;61204;49.980;8.358;2023-05-01T14:38:32;100372.44;;;26.68
72278;BMP280;61204;49.980;8.358;2023-05-01T14:41:03;100372.50;;;25.85
72278;BMP280;61204;49.980;8.358;2023-05-01T14:43:29;100369.31;;;24.67
72278;BMP280;61204;49.980;8.358;2023-05-01T14:45:57;100373.16;;;25.38
72278;BMP280;61204;49.980;8.358;2023-05-01T14:48:24;100376.66;;;25.47
72278;BMP280;61204;49.980;8.358;2023-05-01T14:51:00;100370.09;;;24.84
72278;BMP280;61204;49.980;8.358;2023-05-01T14:53:31;100372.31;;;25.05
72278;BMP280;61204;49.980;8.358;2023-05-01T14:55:57;100363.75;;;24.79